sensor_id;sensor_type;location;lat;lon;timestamp;P1;durP1;ratioP1;P2;durP2;ratioP2
36291;SDS011;22327;51.208;6.418;2023-09-19T00:00:35;3.38;;;1.50;;
36291;SDS011;22327;51.208;6.418;2023-09-19T00:03:36;6.18;;;1.98;;
36291;SDS011;22327;51.208;6.418;2023-09-19T00:06:42;6.72;;;1.33;;
36291;SDS011;22327;51.208;6.418;2023-09-19T00:09:44;9.10;;;1.60;;
36291;SDS011;22327;51.208;6.418;2023-09-19T00:12:44;6.80;;;1.60;;
36291;SDS011;22327;51.208;6.418;2023-09-19T00:15:46;8.38;;;1.40;;
36291;SDS011;22327;51.208;6.418;2023-09-19T00:18:51;8.15;;;1.65;;
36291;SDS011;22327;51.208;6.418;2023-09-19T00:21:52;11.40;;;2.08;;
36291;SDS011;22327;51.208;6.418;2023-09-19T00:24:53;5.97;;;1.40;;
36291;SDS011;22327;51.208;6.418;2023-09-19T00:27:55;9.32;;;1.40;;
36291;SDS011;22327;51.208;6.418;2023-09-19T00:30:55;5.70;;;1.60;;
36291;SDS011;22327;51.208;6.418;2023-09-19T00:33:56;5.72;;;1.77;;
36291;SDS011;22327;51.208;6.418;2023-09-19T00:37:00;9.38;;;2.10;;
36291;SDS011;22327;51.208;6.418;2023-09-19T00:40:00;5.22;;;1.20;;
36291;SDS011;22327;51.208;6.418;2023-09-19T00:43:00;6.65;;;1.70;;
36291;SDS011;22327;51.208;6.418;2023-09-19T00:46:01;9.93;;;1.70;;
36291;SDS011;22327;51.208;6.418;2023-09-19T00:49:04;7.90;;;1.30;;
36291;SDS011;22327;51.208;6.418;2023-09-19T00:52:07;8.77;;;2.00;;
36291;SDS011;22327;51.208;6.418;2023-09-19T00:55:10;8.15;;;1.98;;
36291;SDS011;22327;51.208;6.418;2023-09-19T01:01:16;7.57;;;1.48;;
36291;SDS011;22327;51.208;6.418;2023-09-19T01:04:17;7.13;;;1.55;;
36291;SDS011;22327;51.208;6.418;2023-09-19T01:07:17;8.25;;;1.58;;
36291;SDS011;22327;51.208;6.418;2023-09-19T01:10:18;8.30;;;1.67;;
36291;SDS011;22327;51.208;6.418;2023-09-19T01:13:22;9.02;;;2.45;;
36291;SDS011;22327;51.208;6.418;2023-09-19T01:23:20;8.32;;;1.48;;
36291;SDS011;22327;51.208;6.418;2023-09-19T01:30:12;7.68;;;1.58;;
36291;SDS011;22327;51.208;6.418;2023-09-19T01:33:14;7.68;;;1.40;;
36291;SDS011;22327;51.208;6.418;2023-09-19T01:36:15;7.90;;;2.08;;
36291;SDS011;22327;51.208;6.418;2023-09-19T01:39:15;5.05;;;1.65;;
36291;SDS011;22327;51.208;6.418;2023-09-19T01:42:28;8.13;;;2.03;;
36291;SDS011;22327;51.208;6.418;2023-09-19T01:45:37;10.30;;;1.55;;
36291;SDS011;22327;51.208;6.418;2023-09-19T01:48:49;7.30;;;1.45;;
36291;SDS011;22327;51.208;6.418;2023-09-19T01:52:05;6.88;;;1.67;;
36291;SDS011;22327;51.208;6.418;2023-09-19T01:55:13;4.93;;;1.15;;
36291;SDS011;22327;51.208;6.418;2023-09-19T01:58:27;6.10;;;1.20;;
36291;SDS011;22327;51.208;6.418;2023-09-19T02:01:34;8.20;;;2.30;;
36291;SDS011;22327;51.208;6.418;2023-09-19T02:04:37;6.38;;;1.27;;
36291;SDS011;22327;51.208;6.418;2023-09-19T02:07:38;5.30;;;1.30;;
36291;SDS011;22327;51.208;6.418;2023-09-19T02:10:40;6.68;;;1.67;;
36291;SDS011;22327;51.208;6.418;2023-09-19T02:13:41;8.77;;;1.70;;
36291;SDS011;22327;51.208;6.418;2023-09-19T02:16:42;5.60;;;1.70;;
36291;SDS011;22327;51.208;6.418;2023-09-19T02:19:42;6.30;;;1.55;;
36291;SDS011;22327;51.208;6.418;2023-09-19T02:22:43;8.05;;;1.20;;
36291;SDS011;22327;51.208;6.418;2023-09-19T02:25:51;6.88;;;1.65;;
36291;SDS011;22327;51.208;6.418;2023-09-19T02:28:52;5.03;;;1.20;;
36291;SDS011;22327;51.208;6.418;2023-09-19T02:31:53;6.70;;;1.45;;
36291;SDS011;22327;51.208;6.418;2023-09-19T02:34:56;7.75;;;1.63;;
36291;SDS011;22327;51.208;6.418;2023-09-19T02:37:57;10.32;;;2.28;;
36291;SDS011;22327;51.208;6.418;2023-09-19T02:40:58;8.43;;;2.17;;
36291;SDS011;22327;51.208;6.418;2023-09-19T02:43:59;5.88;;;1.80;;
36291;SDS011;22327;51.208;6.418;2023-09-19T02:46:59;7.15;;;1.38;;
36291;SDS011;22327;51.208;6.418;2023-09-19T02:50:00;5.93;;;1.30;;
36291;SDS011;22327;51.208;6.418;2023-09-19T02:53:00;6.80;;;1.67;;
36291;SDS011;22327;51.208;6.418;2023-09-19T02:56:01;6.97;;;1.70;;
36291;SDS011;22327;51.208;6.418;2023-09-19T02:59:04;8.15;;;1.60;;
36291;SDS011;22327;51.208;6.418;2023-09-19T03:02:05;8.02;;;1.50;;
36291;SDS011;22327;51.208;6.418;2023-09-19T03:05:06;8.52;;;2.00;;
36291;SDS011;22327;51.208;6.418;2023-09-19T03:08:07;7.50;;;1.30;;
36291;SDS011;22327;51.208;6.418;2023-09-19T03:11:08;4.25;;;1.10;;
36291;SDS011;22327;51.208;6.418;2023-09-19T03:14:11;6.67;;;1.90;;
36291;SDS011;22327;51.208;6.418;2023-09-19T03:17:12;13.13;;;1.50;;
36291;SDS011;22327;51.208;6.418;2023-09-19T03:20:15;5.70;;;1.13;;
36291;SDS011;22327;51.208;6.418;2023-09-19T03:26:19;7.32;;;1.70;;
36291;SDS011;22327;51.208;6.418;2023-09-19T03:29:19;5.28;;;1.40;;
36291;SDS011;22327;51.208;6.418;2023-09-19T03:32:20;9.07;;;1.75;;
36291;SDS011;22327;51.208;6.418;2023-09-19T03:35:21;7.28;;;1.48;;
36291;SDS011;22327;51.208;6.418;2023-09-19T03:38:21;5.97;;;1.83;;
36291;SDS011;22327;51.208;6.418;2023-09-19T03:41:22;5.35;;;1.50;;
36291;SDS011;22327;51.208;6.418;2023-09-19T03:44:23;4.75;;;1.65;;
36291;SDS011;22327;51.208;6.418;2023-09-19T03:47:23;6.85;;;1.30;;
36291;SDS011;22327;51.208;6.418;2023-09-19T03:50:24;7.10;;;1.27;;
36291;SDS011;22327;51.208;6.418;2023-09-19T03:53:24;6.03;;;1.52;;
36291;SDS011;22327;51.208;6.418;2023-09-19T03:56:25;4.90;;;1.50;;
36291;SDS011;22327;51.208;6.418;2023-09-19T03:59:25;9.13;;;1.70;;
36291;SDS011;22327;51.208;6.418;2023-09-19T04:02:27;6.50;;;1.92;;
36291;SDS011;22327;51.208;6.418;2023-09-19T04:05:32;9.43;;;1.80;;
36291;SDS011;22327;51.208;6.418;2023-09-19T04:08:33;11.73;;;2.08;;
36291;SDS011;22327;51.208;6.418;2023-09-19T04:11:34;4.72;;;1.20;;
36291;SDS011;22327;51.208;6.418;2023-09-19T04:14:34;6.85;;;1.20;;
36291;SDS011;22327;51.208;6.418;2023-09-19T04:17:35;7.53;;;1.30;;
36291;SDS011;22327;51.208;6.418;2023-09-19T04:20:35;6.53;;;2.20;;
36291;SDS011;22327;51.208;6.418;2023-09-19T04:23:36;10.63;;;1.70;;
36291;SDS011;22327;51.208;6.418;2023-09-19T04:26:36;8.15;;;1.50;;
36291;SDS011;22327;51.208;6.418;2023-09-19T04:29:37;8.63;;;2.00;;
36291;SDS011;22327;51.208;6.418;2023-09-19T04:32:40;8.18;;;1.75;;
36291;SDS011;22327;51.208;6.418;2023-09-19T04:35:41;7.30;;;2.07;;
36291;SDS011;22327;51.208;6.418;2023-09-19T04:38:44;8.95;;;2.10;;
36291;SDS011;22327;51.208;6.418;2023-09-19T04:41:45;10.82;;;1.75;;
36291;SDS011;22327;51.208;6.418;2023-09-19T04:44:47;5.40;;;1.38;;
36291;SDS011;22327;51.208;6.418;2023-09-19T04:47:49;7.70;;;1.90;;
36291;SDS011;22327;51.208;6.418;2023-09-19T04:50:50;9.75;;;1.95;;
36291;SDS011;22327;51.208;6.418;2023-09-19T04:53:51;6.18;;;1.50;;
36291;SDS011;22327;51.208;6.418;2023-09-19T04:56:51;9.88;;;1.75;;
36291;SDS011;22327;51.208;6.418;2023-09-19T04:59:52;7.43;;;1.73;;
36291;SDS011;22327;51.208;6.418;2023-09-19T05:02:53;8.10;;;1.70;;
36291;SDS011;22327;51.208;6.418;2023-09-19T05:05:58;6.80;;;1.35;;
36291;SDS011;22327;51.208;6.418;2023-09-19T05:08:59;7.78;;;1.50;;
36291;SDS011;22327;51.208;6.418;2023-09-19T05:12:00;6.20;;;1.85;;
36291;SDS011;22327;51.208;6.418;2023-09-19T05:15:01;7.43;;;1.50;;
36291;SDS011;22327;51.208;6.418;2023-09-19T05:18:03;6.45;;;1.67;;
36291;SDS011;22327;51.208;6.418;2023-09-19T05:21:03;5.78;;;2.03;;
36291;SDS011;22327;51.208;6.418;2023-09-19T05:24:05;8.98;;;1.75;;
36291;SDS011;22327;51.208;6.418;2023-09-19T05:27:06;6.35;;;1.50;;
36291;SDS011;22327;51.208;6.418;2023-09-19T05:30:07;7.15;;;1.55;;
36291;SDS011;22327;51.208;6.418;2023-09-19T05:33:08;7.63;;;1.65;;
36291;SDS011;22327;51.208;6.418;2023-09-19T05:36:09;8.77;;;1.70;;
36291;SDS011;22327;51.208;6.418;2023-09-19T05:39:11;11.45;;;2.33;;
36291;SDS011;22327;51.208;6.418;2023-09-19T05:42:12;6.13;;;1.27;;
36291;SDS011;22327;51.208;6.418;2023-09-19T05:45:14;7.85;;;2.38;;
36291;SDS011;22327;51.208;6.418;2023-09-19T05:48:18;8.88;;;1.50;;
36291;SDS011;22327;51.208;6.418;2023-09-19T05:51:20;5.88;;;1.42;;
36291;SDS011;22327;51.208;6.418;2023-09-19T05:54:22;5.47;;;1.40;;
36291;SDS011;22327;51.208;6.418;2023-09-19T05:57:23;4.97;;;1.30;;
36291;SDS011;22327;51.208;6.418;2023-09-19T06:00:25;7.80;;;1.60;;
36291;SDS011;22327;51.208;6.418;2023-09-19T06:03:27;6.72;;;1.95;;
36291;SDS011;22327;51.208;6.418;2023-09-19T06:06:29;6.40;;;1.30;;
36291;SDS011;22327;51.208;6.418;2023-09-19T06:09:30;6.15;;;1.55;;
36291;SDS011;22327;51.208;6.418;2023-09-19T06:12:32;5.55;;;1.40;;
36291;SDS011;22327;51.208;6.418;2023-09-19T06:15:37;10.15;;;2.22;;
36291;SDS011;22327;51.208;6.418;2023-09-19T06:18:37;10.23;;;1.55;;
36291;SDS011;22327;51.208;6.418;2023-09-19T06:21:38;8.43;;;1.52;;
36291;SDS011;22327;51.208;6.418;2023-09-19T06:24:39;5.20;;;1.63;;
36291;SDS011;22327;51.208;6.418;2023-09-19T06:27:40;7.22;;;1.52;;
36291;SDS011;22327;51.208;6.418;2023-09-19T06:33:44;8.38;;;1.33;;
36291;SDS011;22327;51.208;6.418;2023-09-19T06:36:45;7.50;;;1.50;;
36291;SDS011;22327;51.208;6.418;2023-09-19T06:39:46;9.23;;;1.80;;
36291;SDS011;22327;51.208;6.418;2023-09-19T06:42:50;6.03;;;1.40;;
36291;SDS011;22327;51.208;6.418;2023-09-19T06:45:53;7.30;;;1.50;;
36291;SDS011;22327;51.208;6.418;2023-09-19T06:48:54;6.47;;;1.25;;
36291;SDS011;22327;51.208;6.418;2023-09-19T06:51:55;7.72;;;1.45;;
36291;SDS011;22327;51.208;6.418;2023-09-19T06:54:57;6.13;;;1.27;;
36291;SDS011;22327;51.208;6.418;2023-09-19T06:57:57;6.07;;;1.50;;
36291;SDS011;22327;51.208;6.418;2023-09-19T07:00:58;5.35;;;1.20;;
36291;SDS011;22327;51.208;6.418;2023-09-19T07:03:59;7.50;;;1.80;;
36291;SDS011;22327;51.208;6.418;2023-09-19T07:06:59;7.32;;;1.33;;
36291;SDS011;22327;51.208;6.418;2023-09-19T07:10:00;5.57;;;1.45;;
36291;SDS011;22327;51.208;6.418;2023-09-19T07:13:03;11.10;;;1.60;;
36291;SDS011;22327;51.208;6.418;2023-09-19T07:16:06;5.53;;;1.55;;
36291;SDS011;22327;51.208;6.418;2023-09-19T07:19:10;6.00;;;1.35;;
36291;SDS011;22327;51.208;6.418;2023-09-19T07:22:11;9.02;;;2.88;;
36291;SDS011;22327;51.208;6.418;2023-09-19T07:25:11;28.35;;;18.25;;
36291;SDS011;22327;51.208;6.418;2023-09-19T07:28:14;29.33;;;17.38;;
36291;SDS011;22327;51.208;6.418;2023-09-19T07:31:15;39.88;;;24.98;;
36291;SDS011;22327;51.208;6.418;2023-09-19T07:34:17;30.52;;;16.33;;
36291;SDS011;22327;51.208;6.418;2023-09-19T07:37:18;25.52;;;14.63;;
36291;SDS011;22327;51.208;6.418;2023-09-19T07:40:18;15.43;;;8.52;;
36291;SDS011;22327;51.208;6.418;2023-09-19T07:43:20;14.30;;;8.60;;
36291;SDS011;22327;51.208;6.418;2023-09-19T07:46:20;11.50;;;6.30;;
36291;SDS011;22327;51.208;6.418;2023-09-19T07:49:22;9.45;;;4.15;;
36291;SDS011;22327;51.208;6.418;2023-09-19T07:52:22;8.57;;;3.90;;
36291;SDS011;22327;51.208;6.418;2023-09-19T07:55:24;7.40;;;2.83;;
36291;SDS011;22327;51.208;6.418;2023-09-19T07:58:25;12.32;;;5.88;;
36291;SDS011;22327;51.208;6.418;2023-09-19T08:01:25;7.82;;;4.00;;
36291;SDS011;22327;51.208;6.418;2023-09-19T08:04:27;11.85;;;5.28;;
36291;SDS011;22327;51.208;6.418;2023-09-19T08:07:28;9.32;;;3.47;;
36291;SDS011;22327;51.208;6.418;2023-09-19T08:10:28;6.13;;;1.88;;
36291;SDS011;22327;51.208;6.418;2023-09-19T08:13:35;9.98;;;3.65;;
36291;SDS011;22327;51.208;6.418;2023-09-19T08:16:35;10.98;;;2.92;;
36291;SDS011;22327;51.208;6.418;2023-09-19T08:19:36;8.73;;;3.58;;
36291;SDS011;22327;51.208;6.418;2023-09-19T08:22:36;12.50;;;4.15;;
36291;SDS011;22327;51.208;6.418;2023-09-19T08:25:37;12.35;;;3.63;;
36291;SDS011;22327;51.208;6.418;2023-09-19T08:28:39;6.40;;;2.50;;
36291;SDS011;22327;51.208;6.418;2023-09-19T08:31:43;5.05;;;1.98;;
36291;SDS011;22327;51.208;6.418;2023-09-19T08:34:43;10.20;;;2.70;;
36291;SDS011;22327;51.208;6.418;2023-09-19T08:37:44;7.78;;;3.40;;
36291;SDS011;22327;51.208;6.418;2023-09-19T08:40:48;5.18;;;3.00;;
36291;SDS011;22327;51.208;6.418;2023-09-19T08:43:48;7.05;;;2.47;;
36291;SDS011;22327;51.208;6.418;2023-09-19T08:46:53;8.88;;;2.20;;
36291;SDS011;22327;51.208;6.418;2023-09-19T08:50:00;6.35;;;2.55;;
36291;SDS011;22327;51.208;6.418;2023-09-19T08:53:11;6.65;;;2.28;;
36291;SDS011;22327;51.208;6.418;2023-09-19T08:59:48;5.00;;;1.98;;
36291;SDS011;22327;51.208;6.418;2023-09-19T09:02:49;6.13;;;1.65;;
36291;SDS011;22327;51.208;6.418;2023-09-19T09:05:51;4.38;;;1.90;;
36291;SDS011;22327;51.208;6.418;2023-09-19T09:08:52;5.53;;;1.58;;
36291;SDS011;22327;51.208;6.418;2023-09-19T09:11:52;6.45;;;1.70;;
36291;SDS011;22327;51.208;6.418;2023-09-19T09:17:57;7.53;;;1.70;;
36291;SDS011;22327;51.208;6.418;2023-09-19T09:20:58;5.40;;;1.75;;
36291;SDS011;22327;51.208;6.418;2023-09-19T09:23:58;5.22;;;1.60;;
36291;SDS011;22327;51.208;6.418;2023-09-19T09:27:03;7.03;;;1.60;;
36291;SDS011;22327;51.208;6.418;2023-09-19T09:30:10;4.72;;;1.35;;
36291;SDS011;22327;51.208;6.418;2023-09-19T09:33:35;7.13;;;1.77;;
36291;SDS011;22327;51.208;6.418;2023-09-19T09:36:39;6.60;;;2.03;;
36291;SDS011;22327;51.208;6.418;2023-09-19T09:39:44;5.88;;;1.60;;
36291;SDS011;22327;51.208;6.418;2023-09-19T09:42:51;6.43;;;1.65;;
36291;SDS011;22327;51.208;6.418;2023-09-19T09:49:24;5.55;;;1.67;;
36291;SDS011;22327;51.208;6.418;2023-09-19T09:52:29;5.35;;;1.75;;
36291;SDS011;22327;51.208;6.418;2023-09-19T09:59:00;3.88;;;1.50;;
36291;SDS011;22327;51.208;6.418;2023-09-19T10:02:01;4.25;;;1.20;;
36291;SDS011;22327;51.208;6.418;2023-09-19T10:05:20;4.95;;;1.30;;
36291;SDS011;22327;51.208;6.418;2023-09-19T10:08:27;4.88;;;1.25;;
36291;SDS011;22327;51.208;6.418;2023-09-19T10:14:32;3.97;;;1.42;;
36291;SDS011;22327;51.208;6.418;2023-09-19T10:17:38;9.52;;;1.42;;
36291;SDS011;22327;51.208;6.418;2023-09-19T10:20:45;5.88;;;1.50;;
36291;SDS011;22327;51.208;6.418;2023-09-19T10:23:48;6.78;;;1.30;;
36291;SDS011;22327;51.208;6.418;2023-09-19T10:26:51;5.40;;;1.73;;
36291;SDS011;22327;51.208;6.418;2023-09-19T10:29:54;5.75;;;1.05;;
36291;SDS011;22327;51.208;6.418;2023-09-19T10:33:01;5.90;;;1.48;;
36291;SDS011;22327;51.208;6.418;2023-09-19T10:36:02;4.70;;;1.38;;
36291;SDS011;22327;51.208;6.418;2023-09-19T10:39:05;4.80;;;1.58;;
36291;SDS011;22327;51.208;6.418;2023-09-19T10:42:08;8.23;;;1.48;;
36291;SDS011;22327;51.208;6.418;2023-09-19T10:45:15;4.57;;;1.27;;
36291;SDS011;22327;51.208;6.418;2023-09-19T10:48:18;4.47;;;1.38;;
36291;SDS011;22327;51.208;6.418;2023-09-19T10:51:20;3.75;;;1.02;;
36291;SDS011;22327;51.208;6.418;2023-09-19T10:54:29;6.93;;;1.25;;
36291;SDS011;22327;51.208;6.418;2023-09-19T10:57:34;4.35;;;1.65;;
36291;SDS011;22327;51.208;6.418;2023-09-19T11:00:49;4.95;;;1.67;;
36291;SDS011;22327;51.208;6.418;2023-09-19T11:03:52;2.00;;;1.10;;
36291;SDS011;22327;51.208;6.418;2023-09-19T11:07:22;6.78;;;1.55;;
36291;SDS011;22327;51.208;6.418;2023-09-19T11:14:13;4.60;;;1.60;;
36291;SDS011;22327;51.208;6.418;2023-09-19T11:20:21;4.53;;;1.65;;
36291;SDS011;22327;51.208;6.418;2023-09-19T11:23:22;4.05;;;1.35;;
36291;SDS011;22327;51.208;6.418;2023-09-19T11:26:39;5.35;;;1.30;;
36291;SDS011;22327;51.208;6.418;2023-09-19T11:29:47;4.78;;;1.27;;
36291;SDS011;22327;51.208;6.418;2023-09-19T11:36:35;5.40;;;1.25;;
36291;SDS011;22327;51.208;6.418;2023-09-19T11:39:36;5.88;;;1.20;;
36291;SDS011;22327;51.208;6.418;2023-09-19T11:42:45;6.38;;;1.67;;
36291;SDS011;22327;51.208;6.418;2023-09-19T11:49:07;3.03;;;1.13;;
36291;SDS011;22327;51.208;6.418;2023-09-19T11:52:21;3.42;;;1.23;;
36291;SDS011;22327;51.208;6.418;2023-09-19T11:55:24;5.15;;;1.52;;
36291;SDS011;22327;51.208;6.418;2023-09-19T11:58:28;6.30;;;1.13;;
36291;SDS011;22327;51.208;6.418;2023-09-19T12:01:31;5.80;;;1.02;;
36291;SDS011;22327;51.208;6.418;2023-09-19T12:04:38;7.10;;;1.73;;
36291;SDS011;22327;51.208;6.418;2023-09-19T12:07:49;3.03;;;1.33;;
36291;SDS011;22327;51.208;6.418;2023-09-19T12:10:49;4.30;;;1.23;;
36291;SDS011;22327;51.208;6.418;2023-09-19T12:13:55;4.53;;;1.00;;
36291;SDS011;22327;51.208;6.418;2023-09-19T12:16:58;3.92;;;1.30;;
36291;SDS011;22327;51.208;6.418;2023-09-19T12:20:01;3.95;;;1.25;;
36291;SDS011;22327;51.208;6.418;2023-09-19T12:23:12;4.75;;;1.35;;
36291;SDS011;22327;51.208;6.418;2023-09-19T12:26:14;5.20;;;1.15;;
36291;SDS011;22327;51.208;6.418;2023-09-19T12:29:15;2.78;;;1.00;;
36291;SDS011;22327;51.208;6.418;2023-09-19T12:32:36;4.55;;;1.35;;
36291;SDS011;22327;51.208;6.418;2023-09-19T12:35:40;3.60;;;1.08;;
36291;SDS011;22327;51.208;6.418;2023-09-19T12:38:41;17.50;;;2.30;;
36291;SDS011;22327;51.208;6.418;2023-09-19T12:41:48;3.50;;;1.13;;
36291;SDS011;22327;51.208;6.418;2023-09-19T12:44:51;2.90;;;1.13;;
36291;SDS011;22327;51.208;6.418;2023-09-19T12:51:22;5.00;;;1.45;;
36291;SDS011;22327;51.208;6.418;2023-09-19T12:54:36;7.00;;;0.90;;
36291;SDS011;22327;51.208;6.418;2023-09-19T12:57:38;5.03;;;1.23;;
36291;SDS011;22327;51.208;6.418;2023-09-19T13:00:43;2.20;;;0.82;;
36291;SDS011;22327;51.208;6.418;2023-09-19T13:03:44;5.90;;;1.25;;
36291;SDS011;22327;51.208;6.418;2023-09-19T13:06:46;2.67;;;0.85;;
36291;SDS011;22327;51.208;6.418;2023-09-19T13:10:04;5.40;;;1.73;;
36291;SDS011;22327;51.208;6.418;2023-09-19T13:13:22;3.08;;;0.77;;
36291;SDS011;22327;51.208;6.418;2023-09-19T13:16:27;2.97;;;0.85;;
36291;SDS011;22327;51.208;6.418;2023-09-19T13:22:45;4.32;;;0.90;;
36291;SDS011;22327;51.208;6.418;2023-09-19T13:25:51;2.25;;;0.88;;
36291;SDS011;22327;51.208;6.418;2023-09-19T13:28:51;3.05;;;0.80;;
36291;SDS011;22327;51.208;6.418;2023-09-19T13:31:52;2.17;;;0.68;;
36291;SDS011;22327;51.208;6.418;2023-09-19T13:34:53;3.35;;;0.80;;
36291;SDS011;22327;51.208;6.418;2023-09-19T13:37:53;3.28;;;0.65;;
36291;SDS011;22327;51.208;6.418;2023-09-19T13:40:54;2.30;;;0.73;;
36291;SDS011;22327;51.208;6.418;2023-09-19T13:43:55;2.15;;;0.90;;
36291;SDS011;22327;51.208;6.418;2023-09-19T13:46:57;2.83;;;0.55;;
36291;SDS011;22327;51.208;6.418;2023-09-19T13:49:57;2.67;;;0.80;;
36291;SDS011;22327;51.208;6.418;2023-09-19T13:52:58;2.55;;;0.65;;
36291;SDS011;22327;51.208;6.418;2023-09-19T13:56:00;3.28;;;0.60;;
36291;SDS011;22327;51.208;6.418;2023-09-19T13:59:00;2.97;;;0.90;;
36291;SDS011;22327;51.208;6.418;2023-09-19T14:02:01;2.95;;;0.88;;
36291;SDS011;22327;51.208;6.418;2023-09-19T14:05:05;1.85;;;0.43;;
36291;SDS011;22327;51.208;6.418;2023-09-19T14:08:06;3.45;;;1.30;;
36291;SDS011;22327;51.208;6.418;2023-09-19T14:11:07;5.97;;;4.25;;
36291;SDS011;22327;51.208;6.418;2023-09-19T14:14:08;8.02;;;4.07;;
36291;SDS011;22327;51.208;6.418;2023-09-19T14:17:09;2.13;;;1.45;;
36291;SDS011;22327;51.208;6.418;2023-09-19T14:20:10;9.68;;;5.35;;
36291;SDS011;22327;51.208;6.418;2023-09-19T14:23:10;6.43;;;3.03;;
36291;SDS011;22327;51.208;6.418;2023-09-19T14:26:12;13.68;;;7.97;;
36291;SDS011;22327;51.208;6.418;2023-09-19T14:29:12;20.58;;;15.43;;
36291;SDS011;22327;51.208;6.418;2023-09-19T14:32:14;13.50;;;8.95;;
36291;SDS011;22327;51.208;6.418;2023-09-19T14:35:14;11.52;;;8.02;;
36291;SDS011;22327;51.208;6.418;2023-09-19T14:38:16;5.00;;;2.60;;
36291;SDS011;22327;51.208;6.418;2023-09-19T14:41:17;7.22;;;4.82;;
36291;SDS011;22327;51.208;6.418;2023-09-19T14:44:17;9.07;;;5.00;;
36291;SDS011;22327;51.208;6.418;2023-09-19T14:47:18;3.53;;;1.67;;
36291;SDS011;22327;51.208;6.418;2023-09-19T14:50:18;4.97;;;2.67;;
36291;SDS011;22327;51.208;6.418;2023-09-19T14:53:19;3.97;;;2.17;;
36291;SDS011;22327;51.208;6.418;2023-09-19T14:56:20;13.02;;;8.48;;
36291;SDS011;22327;51.208;6.418;2023-09-19T14:59:21;5.03;;;3.15;;
36291;SDS011;22327;51.208;6.418;2023-09-19T15:02:22;8.35;;;5.03;;
36291;SDS011;22327;51.208;6.418;2023-09-19T15:05:22;4.47;;;2.08;;
36291;SDS011;22327;51.208;6.418;2023-09-19T15:08:23;6.25;;;2.40;;
36291;SDS011;22327;51.208;6.418;2023-09-19T15:11:23;6.78;;;3.15;;
36291;SDS011;22327;51.208;6.418;2023-09-19T15:14:24;2.65;;;1.50;;
36291;SDS011;22327;51.208;6.418;2023-09-19T15:17:25;4.47;;;2.72;;
36291;SDS011;22327;51.208;6.418;2023-09-19T15:20:26;2.90;;;1.45;;
36291;SDS011;22327;51.208;6.418;2023-09-19T15:23:26;3.10;;;1.50;;
36291;SDS011;22327;51.208;6.418;2023-09-19T15:26:29;2.17;;;0.70;;
36291;SDS011;22327;51.208;6.418;2023-09-19T15:29:30;7.43;;;3.80;;
36291;SDS011;22327;51.208;6.418;2023-09-19T15:32:30;4.40;;;1.88;;
36291;SDS011;22327;51.208;6.418;2023-09-19T15:35:32;5.90;;;1.77;;
36291;SDS011;22327;51.208;6.418;2023-09-19T15:42:01;4.88;;;2.17;;
36291;SDS011;22327;51.208;6.418;2023-09-19T15:45:02;5.57;;;3.33;;
36291;SDS011;22327;51.208;6.418;2023-09-19T15:48:03;4.90;;;3.38;;
36291;SDS011;22327;51.208;6.418;2023-09-19T15:51:04;3.50;;;2.58;;
36291;SDS011;22327;51.208;6.418;2023-09-19T15:54:09;4.63;;;2.03;;
36291;SDS011;22327;51.208;6.418;2023-09-19T15:57:13;3.97;;;2.15;;
36291;SDS011;22327;51.208;6.418;2023-09-19T16:00:14;3.65;;;2.63;;
36291;SDS011;22327;51.208;6.418;2023-09-19T16:03:17;7.17;;;2.43;;
36291;SDS011;22327;51.208;6.418;2023-09-19T16:06:18;7.43;;;3.95;;
36291;SDS011;22327;51.208;6.418;2023-09-19T16:09:23;5.00;;;1.50;;
36291;SDS011;22327;51.208;6.418;2023-09-19T16:12:23;4.50;;;2.47;;
36291;SDS011;22327;51.208;6.418;2023-09-19T16:15:24;6.95;;;2.35;;
36291;SDS011;22327;51.208;6.418;2023-09-19T16:18:24;4.32;;;1.83;;
36291;SDS011;22327;51.208;6.418;2023-09-19T16:21:25;3.28;;;2.42;;
36291;SDS011;22327;51.208;6.418;2023-09-19T16:24:27;3.40;;;1.92;;
36291;SDS011;22327;51.208;6.418;2023-09-19T16:27:28;2.38;;;1.65;;
36291;SDS011;22327;51.208;6.418;2023-09-19T16:30:31;5.18;;;2.50;;
36291;SDS011;22327;51.208;6.418;2023-09-19T16:36:34;5.47;;;1.40;;
36291;SDS011;22327;51.208;6.418;2023-09-19T16:39:35;4.15;;;2.20;;
36291;SDS011;22327;51.208;6.418;2023-09-19T16:42:36;3.80;;;1.80;;
36291;SDS011;22327;51.208;6.418;2023-09-19T16:45:38;4.75;;;1.33;;
36291;SDS011;22327;51.208;6.418;2023-09-19T16:48:40;3.50;;;0.88;;
36291;SDS011;22327;51.208;6.418;2023-09-19T16:51:42;2.83;;;0.98;;
36291;SDS011;22327;51.208;6.418;2023-09-19T16:54:43;4.72;;;1.90;;
36291;SDS011;22327;51.208;6.418;2023-09-19T16:57:44;3.72;;;1.60;;
36291;SDS011;22327;51.208;6.418;2023-09-19T17:00:46;3.08;;;1.35;;
36291;SDS011;22327;51.208;6.418;2023-09-19T17:03:47;4.50;;;1.15;;
36291;SDS011;22327;51.208;6.418;2023-09-19T17:06:48;4.03;;;1.40;;
36291;SDS011;22327;51.208;6.418;2023-09-19T17:09:48;3.05;;;1.38;;
36291;SDS011;22327;51.208;6.418;2023-09-19T17:12:50;2.83;;;0.73;;
36291;SDS011;22327;51.208;6.418;2023-09-19T17:15:58;1.73;;;0.70;;
36291;SDS011;22327;51.208;6.418;2023-09-19T17:19:00;3.08;;;0.82;;
36291;SDS011;22327;51.208;6.418;2023-09-19T17:22:00;4.75;;;1.10;;
36291;SDS011;22327;51.208;6.418;2023-09-19T17:25:01;3.58;;;1.55;;
36291;SDS011;22327;51.208;6.418;2023-09-19T17:28:03;2.75;;;1.00;;
36291;SDS011;22327;51.208;6.418;2023-09-19T17:31:13;4.25;;;2.17;;
36291;SDS011;22327;51.208;6.418;2023-09-19T17:34:16;4.53;;;1.40;;
36291;SDS011;22327;51.208;6.418;2023-09-19T17:37:16;2.03;;;1.15;;
36291;SDS011;22327;51.208;6.418;2023-09-19T17:40:19;4.00;;;1.35;;
36291;SDS011;22327;51.208;6.418;2023-09-19T17:43:20;3.33;;;1.60;;
36291;SDS011;22327;51.208;6.418;2023-09-19T17:46:20;6.05;;;3.05;;
36291;SDS011;22327;51.208;6.418;2023-09-19T17:49:22;2.83;;;1.35;;
36291;SDS011;22327;51.208;6.418;2023-09-19T17:52:23;5.90;;;3.08;;
36291;SDS011;22327;51.208;6.418;2023-09-19T17:55:24;4.90;;;2.03;;
36291;SDS011;22327;51.208;6.418;2023-09-19T17:58:24;3.67;;;1.92;;
36291;SDS011;22327;51.208;6.418;2023-09-19T18:01:26;2.90;;;1.45;;
36291;SDS011;22327;51.208;6.418;2023-09-19T18:04:28;4.20;;;1.15;;
36291;SDS011;22327;51.208;6.418;2023-09-19T18:07:29;3.97;;;2.42;;
36291;SDS011;22327;51.208;6.418;2023-09-19T18:10:30;4.22;;;1.73;;
36291;SDS011;22327;51.208;6.418;2023-09-19T18:13:32;4.45;;;1.70;;
36291;SDS011;22327;51.208;6.418;2023-09-19T18:16:33;4.30;;;2.22;;
36291;SDS011;22327;51.208;6.418;2023-09-19T18:19:34;3.47;;;1.17;;
36291;SDS011;22327;51.208;6.418;2023-09-19T18:22:34;3.70;;;1.27;;
36291;SDS011;22327;51.208;6.418;2023-09-19T18:25:35;5.00;;;2.08;;
36291;SDS011;22327;51.208;6.418;2023-09-19T18:28:37;5.50;;;2.65;;
36291;SDS011;22327;51.208;6.418;2023-09-19T18:31:38;3.72;;;1.38;;
36291;SDS011;22327;51.208;6.418;2023-09-19T18:34:39;3.83;;;1.63;;
36291;SDS011;22327;51.208;6.418;2023-09-19T18:37:41;3.70;;;1.50;;
36291;SDS011;22327;51.208;6.418;2023-09-19T18:40:45;2.63;;;1.30;;
36291;SDS011;22327;51.208;6.418;2023-09-19T18:43:46;3.83;;;1.10;;
36291;SDS011;22327;51.208;6.418;2023-09-19T18:46:46;2.20;;;1.38;;
36291;SDS011;22327;51.208;6.418;2023-09-19T18:49:47;3.28;;;1.58;;
36291;SDS011;22327;51.208;6.418;2023-09-19T18:52:48;4.93;;;1.63;;
36291;SDS011;22327;51.208;6.418;2023-09-19T18:56:01;1.70;;;0.90;;
36291;SDS011;22327;51.208;6.418;2023-09-19T18:59:03;3.63;;;1.20;;
36291;SDS011;22327;51.208;6.418;2023-09-19T19:02:04;3.72;;;1.52;;
36291;SDS011;22327;51.208;6.418;2023-09-19T19:05:05;3.45;;;1.15;;
36291;SDS011;22327;51.208;6.418;2023-09-19T19:08:08;3.58;;;0.95;;
36291;SDS011;22327;51.208;6.418;2023-09-19T19:11:10;3.03;;;1.10;;
36291;SDS011;22327;51.208;6.418;2023-09-19T19:14:11;2.53;;;0.80;;
36291;SDS011;22327;51.208;6.418;2023-09-19T19:17:12;1.88;;;0.90;;
36291;SDS011;22327;51.208;6.418;2023-09-19T19:20:15;6.15;;;2.17;;